createdAt,value
2022-08-24T00:00:18.039Z,54.92
2022-08-24T00:02:44.999Z,54.83
2022-08-24T00:05:14.708Z,54.94
2022-08-24T00:07:41.799Z,54.97
2022-08-24T00:10:10.697Z,55.02
2022-08-24T00:12:37.539Z,54.99
2022-08-24T00:15:06.233Z,55.03
2022-08-24T00:17:34.222Z,55.13
2022-08-24T00:20:01.110Z,55.08
2022-08-24T00:22:28.948Z,54.92
2022-08-24T00:24:56.753Z,55.02
2022-08-24T00:27:23.378Z,55.11
2022-08-24T00:29:50.076Z,55.20
2022-08-24T00:32:16.682Z,55.25
2022-08-24T00:34:58.928Z,55.34
2022-08-24T00:37:28.610Z,55.40
2022-08-24T00:39:56.334Z,55.25
2022-08-24T00:42:24.202Z,55.29
2022-08-24T00:44:50.942Z,55.10
2022-08-24T00:47:23.940Z,55.23
2022-08-24T00:49:54.554Z,55.41
2022-08-24T00:52:38.911Z,55.54
2022-08-24T00:55:15.122Z,55.67
2022-08-24T00:57:45.523Z,55.82
2022-08-24T01:00:19.105Z,56.19
2022-08-24T01:02:48.839Z,56.14
2022-08-24T01:05:19.102Z,56.35
2022-08-24T01:07:49.285Z,56.38
2022-08-24T01:10:19.726Z,56.49
2022-08-24T01:12:59.912Z,56.72
2022-08-24T01:15:30.819Z,56.97
2022-08-24T01:18:16.934Z,57.06
2022-08-24T01:20:49.374Z,57.12
2022-08-24T01:23:36.464Z,57.39
2022-08-24T01:26:04.383Z,57.36
2022-08-24T01:28:31.288Z,57.50
2022-08-24T01:30:59.893Z,57.95
2022-08-24T01:33:31.388Z,57.95
2022-08-24T01:36:04.587Z,58.04
2022-08-24T01:38:33.005Z,58.03
2022-08-24T01:41:02.407Z,58.74
2022-08-24T01:43:29.757Z,59.10
2022-08-24T01:45:57.800Z,59.52
2022-08-24T01:48:24.647Z,59.85
2022-08-24T01:50:53.073Z,60.18
2022-08-24T01:53:21.674Z,60.38
2022-08-24T01:55:48.828Z,60.14
2022-08-24T01:58:15.868Z,60.25
2022-08-24T02:00:44.590Z,60.42
2022-08-24T02:03:13.300Z,60.58
2022-08-24T02:05:40.455Z,60.89
2022-08-24T02:08:08.956Z,61.00
2022-08-24T02:10:35.603Z,60.77
2022-08-24T02:13:04.327Z,60.53
2022-08-24T02:15:40.189Z,60.42
2022-08-24T02:18:14.778Z,59.91
2022-08-24T02:20:43.325Z,59.81
2022-08-24T02:23:10.093Z,59.72
2022-08-24T02:25:36.889Z,59.62
2022-08-24T02:28:03.981Z,59.43
2022-08-24T02:30:32.097Z,59.31
2022-08-24T02:33:00.254Z,59.50
2022-08-24T02:35:29.738Z,59.57
2022-08-24T02:37:57.983Z,59.50
2022-08-24T02:40:26.757Z,59.75
2022-08-24T02:42:55.621Z,59.77
2022-08-24T02:45:22.296Z,59.93
2022-08-24T02:47:49.855Z,59.86
2022-08-24T02:50:18.735Z,59.92
2022-08-24T02:52:46.370Z,60.00
2022-08-24T02:55:19.828Z,59.89
2022-08-24T02:57:48.201Z,59.69
2022-08-24T03:00:17.800Z,59.71
2022-08-24T03:02:51.566Z,59.71
2022-08-24T03:05:18.973Z,59.58
2022-08-24T03:07:46.097Z,59.68
2022-08-24T03:10:13.215Z,59.80
2022-08-24T03:12:40.667Z,59.79
2022-08-24T03:15:10.543Z,59.89
2022-08-24T03:17:39.869Z,59.68
2022-08-24T03:20:11.714Z,59.67
2022-08-24T03:22:38.934Z,59.69
2022-08-24T03:25:06.553Z,59.80
2022-08-24T03:27:33.151Z,59.99
2022-08-24T03:29:59.821Z,59.98
2022-08-24T03:32:27.863Z,59.81
2022-08-24T03:34:55.872Z,59.66
2022-08-24T03:37:22.490Z,59.89
2022-08-24T03:39:51.029Z,59.73
2022-08-24T03:42:18.181Z,59.90
2022-08-24T03:44:44.817Z,59.98
2022-08-24T03:47:11.859Z,59.97
2022-08-24T03:49:39.741Z,59.45
2022-08-24T03:52:06.884Z,59.38
2022-08-24T03:54:34.275Z,59.48
2022-08-24T03:57:01.642Z,59.44
2022-08-24T03:59:28.859Z,59.50
2022-08-24T04:01:58.067Z,59.17
2022-08-24T04:04:27.122Z,59.08
2022-08-24T04:06:53.869Z,58.98
2022-08-24T04:09:23.698Z,58.82
2022-08-24T04:11:51.850Z,58.43
2022-08-24T04:14:27.381Z,58.36
2022-08-24T04:17:06.482Z,58.10
2022-08-24T04:19:57.329Z,57.68
2022-08-24T04:22:29.501Z,57.19
2022-08-24T04:24:56.337Z,57.07
2022-08-24T04:27:23.614Z,56.72
2022-08-24T04:29:51.024Z,56.46
2022-08-24T04:32:18.909Z,56.19
2022-08-24T04:34:47.133Z,55.84
2022-08-24T04:37:15.006Z,55.91
2022-08-24T04:39:42.622Z,55.65
2022-08-24T04:42:31.711Z,55.33
2022-08-24T04:45:00.668Z,55.65
2022-08-24T04:47:27.339Z,55.55
2022-08-24T04:49:53.997Z,55.44
2022-08-24T04:52:20.798Z,55.49
2022-08-24T04:54:47.417Z,55.51
2022-08-24T04:57:20.785Z,55.29
2022-08-24T04:59:48.448Z,55.35
2022-08-24T05:02:15.312Z,55.34
2022-08-24T05:04:44.497Z,55.30
2022-08-24T05:07:12.348Z,55.63
2022-08-24T05:09:41.075Z,55.44
2022-08-24T05:12:08.136Z,55.15
2022-08-24T05:14:38.936Z,55.83
2022-08-24T05:17:05.980Z,55.74
2022-08-24T05:19:37.394Z,56.02
2022-08-24T05:22:05.338Z,55.83
2022-08-24T05:24:32.070Z,55.41
2022-08-24T05:27:00.456Z,55.16
2022-08-24T05:29:29.147Z,55.33
2022-08-24T05:31:55.919Z,55.63
2022-08-24T05:34:23.986Z,55.68
2022-08-24T05:36:51.749Z,55.63
2022-08-24T05:39:32.801Z,55.67
2022-08-24T05:42:05.064Z,56.07
2022-08-24T05:44:37.852Z,56.46
2022-08-24T05:47:05.004Z,56.68
2022-08-24T05:49:31.843Z,56.96
2022-08-24T05:51:58.888Z,57.02
2022-08-24T05:54:26.910Z,57.28
2022-08-24T05:57:04.672Z,57.66
2022-08-24T05:59:37.796Z,57.82
2022-08-24T06:02:10.404Z,57.71
2022-08-24T06:04:38.199Z,58.23
2022-08-24T06:07:09.146Z,58.23
2022-08-24T06:09:39.454Z,58.17
2022-08-24T06:12:07.059Z,58.23
2022-08-24T06:14:34.604Z,58.32
2022-08-24T06:17:05.940Z,58.30
2022-08-24T06:19:33.163Z,58.58
2022-08-24T06:21:59.812Z,58.74
2022-08-24T06:24:47.486Z,58.81
2022-08-24T06:27:23.298Z,58.49
2022-08-24T06:29:59.223Z,58.56
2022-08-24T06:32:44.171Z,58.32
2022-08-24T06:35:20.872Z,58.23
2022-08-24T06:37:48.336Z,58.05
2022-08-24T06:40:15.815Z,58.04
2022-08-24T06:42:43.538Z,57.41
2022-08-24T06:45:22.311Z,57.45
2022-08-24T06:47:51.060Z,57.07
2022-08-24T06:50:19.566Z,57.50
2022-08-24T06:52:51.047Z,57.50
2022-08-24T06:55:17.938Z,57.28
2022-08-24T06:57:47.961Z,56.74
2022-08-24T07:00:17.748Z,56.55
2022-08-24T07:02:44.837Z,56.16
2022-08-24T07:05:11.794Z,56.00
2022-08-24T07:08:06.153Z,55.70
2022-08-24T07:10:34.407Z,55.65
2022-08-24T07:13:01.365Z,55.74
2022-08-24T07:15:28.165Z,54.68
2022-08-24T07:18:10.004Z,53.80
2022-08-24T07:20:39.608Z,53.44
2022-08-24T07:23:14.615Z,53.18
2022-08-24T07:25:46.240Z,52.86
2022-08-24T07:28:16.742Z,52.83
2022-08-24T07:30:44.173Z,51.91
2022-08-24T07:33:13.211Z,51.52
2022-08-24T07:35:41.561Z,50.74
2022-08-24T07:38:08.712Z,50.79
2022-08-24T07:41:01.664Z,50.71
2022-08-24T07:43:24.049Z,50.31
2022-08-24T07:45:51.753Z,50.43
2022-08-24T07:48:19.366Z,49.87
2022-08-24T07:50:47.121Z,49.67
2022-08-24T07:53:20.675Z,50.04
2022-08-24T07:55:54.058Z,49.32
2022-08-24T07:58:21.432Z,49.48
2022-08-24T08:00:49.506Z,49.85
2022-08-24T08:03:16.865Z,49.38
2022-08-24T08:05:45.145Z,48.20
2022-08-24T08:08:12.073Z,47.66
2022-08-24T08:10:40.730Z,47.71
2022-08-24T08:13:08.096Z,47.53
2022-08-24T08:15:36.241Z,47.75
2022-08-24T08:18:07.808Z,46.37
2022-08-24T08:20:40.412Z,46.95
2022-08-24T08:23:26.260Z,46.85
2022-08-24T08:25:59.400Z,46.92
2022-08-24T08:28:48.899Z,47.10
2022-08-24T08:31:15.932Z,46.47
2022-08-24T08:33:42.713Z,46.47
2022-08-24T08:36:15.075Z,47.05
2022-08-24T08:38:46.694Z,47.27
2022-08-24T08:41:25.970Z,47.28
2022-08-24T08:44:20.020Z,47.07
2022-08-24T08:46:52.993Z,46.92
2022-08-24T08:49:51.040Z,46.60
2022-08-24T08:52:27.234Z,46.50
2022-08-24T08:55:21.873Z,45.74
2022-08-24T08:58:18.585Z,45.49
2022-08-24T09:00:52.915Z,45.26
2022-08-24T09:04:03.532Z,45.54
2022-08-24T09:06:46.262Z,45.37
2022-08-24T09:09:34.990Z,45.11
2022-08-24T09:12:08.902Z,45.40
2022-08-24T09:14:59.974Z,45.06
2022-08-24T09:17:50.089Z,45.40
2022-08-24T09:20:29.052Z,45.06
2022-08-24T09:23:18.845Z,44.71
2022-08-24T09:25:58.374Z,44.00
2022-08-24T09:28:37.935Z,44.17
2022-08-24T09:34:23.593Z,42.19
2022-08-24T09:37:09.926Z,42.48
2022-08-24T09:39:58.673Z,43.16
2022-08-24T09:42:59.997Z,43.26
2022-08-24T09:45:58.414Z,42.17
2022-08-24T09:48:26.153Z,42.15
2022-08-24T09:50:58.557Z,42.72
2022-08-24T09:53:28.126Z,41.71
2022-08-24T09:56:27.988Z,42.39
2022-08-24T09:58:57.817Z,42.36
2022-08-24T10:02:02.822Z,42.19
2022-08-24T10:04:43.139Z,41.68
2022-08-24T10:07:22.437Z,41.37
2022-08-24T10:10:16.308Z,41.96
2022-08-24T10:13:18.497Z,41.32
2022-08-24T10:15:58.760Z,40.25
2022-08-24T10:18:48.331Z,39.12
2022-08-24T10:21:37.150Z,38.96
2022-08-24T10:24:06.473Z,39.42
2022-08-24T10:27:18.620Z,38.66
2022-08-24T10:30:28.228Z,39.22
2022-08-24T10:33:07.326Z,39.03
2022-08-24T10:35:48.514Z,38.82
2022-08-24T10:39:06.854Z,38.23
2022-08-24T10:42:06.429Z,38.32
2022-08-24T10:44:49.961Z,37.64
2022-08-24T10:47:23.206Z,37.34
2022-08-24T10:50:31.039Z,37.09
2022-08-24T10:53:19.005Z,37.34
2022-08-24T10:55:46.020Z,36.73
2022-08-24T10:58:40.879Z,36.99
2022-08-24T11:01:35.433Z,37.47
2022-08-24T11:04:09.875Z,37.03
2022-08-24T11:06:39.490Z,37.47
2022-08-24T11:09:19.738Z,37.54
2022-08-24T11:11:49.871Z,37.34
2022-08-24T11:14:16.419Z,37.65
2022-08-24T11:16:45.612Z,36.92
2022-08-24T11:19:25.930Z,37.15
2022-08-24T11:21:55.176Z,36.14
2022-08-24T11:24:39.960Z,35.41
2022-08-24T11:27:31.139Z,35.78
2022-08-24T11:30:02.273Z,35.07
2022-08-24T11:32:31.593Z,34.78
2022-08-24T11:35:16.240Z,34.52
2022-08-24T11:37:43.717Z,34.53
2022-08-24T11:40:10.833Z,34.54
2022-08-24T11:42:49.623Z,34.21
2022-08-24T11:45:25.873Z,33.91
2022-08-24T11:48:12.428Z,34.13
2022-08-24T11:50:57.004Z,34.21
2022-08-24T11:53:33.222Z,34.25
2022-08-24T11:56:00.645Z,33.85
2022-08-24T11:58:37.754Z,34.13
2022-08-24T12:01:35.280Z,33.70
2022-08-24T12:04:17.662Z,32.62
2022-08-24T12:07:20.299Z,32.86
2022-08-24T12:10:01.416Z,33.13
2022-08-24T12:12:28.024Z,32.71
2022-08-24T12:15:03.866Z,32.21
2022-08-24T12:17:51.768Z,32.49
2022-08-24T12:20:41.144Z,32.01
2022-08-24T12:23:15.162Z,32.30
2022-08-24T12:26:04.559Z,32.36
2022-08-24T12:28:44.060Z,32.20
2022-08-24T12:31:29.442Z,32.30
2022-08-24T12:34:01.981Z,32.29
2022-08-24T12:36:36.492Z,31.80
2022-08-24T12:39:10.946Z,31.28
2022-08-24T12:41:48.612Z,31.17
2022-08-24T12:44:17.211Z,31.19
2022-08-24T12:46:44.650Z,31.01
2022-08-24T12:49:50.665Z,31.38
2022-08-24T12:52:35.524Z,31.92
2022-08-24T12:55:19.676Z,31.93
2022-08-24T12:58:40.156Z,32.31
2022-08-24T13:01:26.961Z,32.68
2022-08-24T13:04:08.182Z,32.00
2022-08-24T13:06:42.624Z,32.28
2022-08-24T13:09:26.742Z,31.88
2022-08-24T13:11:55.932Z,32.33
2022-08-24T13:14:29.283Z,31.63
2022-08-24T13:16:56.321Z,31.98
2022-08-24T13:19:23.021Z,32.26
2022-08-24T13:21:59.036Z,33.24
2022-08-24T13:24:28.689Z,32.96
2022-08-24T13:26:57.389Z,32.74
2022-08-24T13:29:33.427Z,38.30
2022-08-24T13:32:01.683Z,39.69
2022-08-24T13:34:44.289Z,40.02
2022-08-24T13:37:18.684Z,41.86
2022-08-24T13:40:16.441Z,44.11
2022-08-24T13:43:27.261Z,44.85
2022-08-24T13:46:26.223Z,47.32
2022-08-24T13:49:01.521Z,45.82
2022-08-24T13:51:30.652Z,44.75
2022-08-24T13:54:03.777Z,45.07
2022-08-24T13:56:58.405Z,44.06
2022-08-24T13:59:55.843Z,42.69
2022-08-24T14:02:29.328Z,43.39
2022-08-24T14:05:12.849Z,43.32
2022-08-24T14:08:14.976Z,43.96
2022-08-24T14:10:48.654Z,41.73
2022-08-24T14:13:41.194Z,42.90
2022-08-24T14:16:45.369Z,43.85
2022-08-24T14:19:25.225Z,43.77
2022-08-24T14:22:24.244Z,43.83
2022-08-24T14:25:01.973Z,44.88
2022-08-24T14:27:40.777Z,45.76
2022-08-24T14:30:19.856Z,44.32
2022-08-24T14:32:58.688Z,44.92
2022-08-24T14:35:32.033Z,44.96
2022-08-24T14:38:28.937Z,45.82
2022-08-24T14:41:10.766Z,45.62
2022-08-24T14:43:55.910Z,46.81
2022-08-24T14:46:43.034Z,45.91
2022-08-24T14:49:42.229Z,46.84
2022-08-24T14:52:50.445Z,49.01
2022-08-24T14:55:32.065Z,49.18
2022-08-24T14:58:11.574Z,50.26
2022-08-24T15:00:52.825Z,51.27
2022-08-24T15:03:49.834Z,51.61
2022-08-24T15:06:39.627Z,53.32
2022-08-24T15:09:27.244Z,55.14
2022-08-24T15:12:10.783Z,55.39
2022-08-24T15:14:48.321Z,54.81
2022-08-24T15:17:23.309Z,54.40
2022-08-24T15:20:08.570Z,54.57
2022-08-24T15:23:02.213Z,53.20
2022-08-24T15:25:36.855Z,53.82
2022-08-24T15:28:08.394Z,56.50
2022-08-24T15:30:39.843Z,56.94
2022-08-24T15:33:09.436Z,56.23
2022-08-24T15:35:41.094Z,55.74
2022-08-24T15:38:29.261Z,55.19
2022-08-24T15:41:14.330Z,54.93
2022-08-24T15:44:01.087Z,55.19
2022-08-24T15:46:42.371Z,54.74
2022-08-24T15:49:21.009Z,55.21
2022-08-24T15:51:58.330Z,55.49
2022-08-24T15:54:25.514Z,54.66
2022-08-24T15:57:00.730Z,56.14
2022-08-24T15:59:39.528Z,55.47
2022-08-24T16:02:30.980Z,55.82
2022-08-24T16:05:09.416Z,56.09
2022-08-24T16:08:04.326Z,57.18
2022-08-24T16:10:33.324Z,57.58
2022-08-24T16:13:28.738Z,57.69
2022-08-24T16:16:09.353Z,58.86
2022-08-24T16:18:50.199Z,59.03
2022-08-24T16:21:45.225Z,59.12
2022-08-24T16:24:37.353Z,60.42
2022-08-24T16:27:03.989Z,59.77
2022-08-24T16:29:37.035Z,59.50
2022-08-24T16:32:26.701Z,58.96
2022-08-24T16:35:17.141Z,58.79
2022-08-24T16:37:43.752Z,59.19
2022-08-24T16:40:14.117Z,60.68
2022-08-24T16:42:41.557Z,61.74
2022-08-24T16:45:10.779Z,61.46
2022-08-24T16:47:37.668Z,61.53
2022-08-24T16:50:06.669Z,61.41
2022-08-24T16:52:33.528Z,61.02
2022-08-24T16:55:01.458Z,59.88
2022-08-24T16:57:31.743Z,59.11
2022-08-24T16:59:58.667Z,58.01
2022-08-24T17:02:28.487Z,58.27
2022-08-24T17:04:56.141Z,57.84
2022-08-24T17:07:31.831Z,56.05
2022-08-24T17:10:05.292Z,55.75
2022-08-24T17:12:32.007Z,55.71
2022-08-24T17:14:59.156Z,56.45
2022-08-24T17:17:26.021Z,57.64
2022-08-24T17:19:54.350Z,57.89
2022-08-24T17:22:23.144Z,58.49
2022-08-24T17:24:50.370Z,58.00
2022-08-24T17:27:20.881Z,57.28
2022-08-24T17:29:48.455Z,58.41
2022-08-24T17:32:16.310Z,57.82
2022-08-24T17:34:43.000Z,58.92
2022-08-24T17:37:10.416Z,59.51
2022-08-24T17:39:37.470Z,60.20
2022-08-24T17:42:12.704Z,60.82
2022-08-24T17:44:51.004Z,60.83
2022-08-24T17:47:18.882Z,61.77
2022-08-24T17:49:46.853Z,63.19
2022-08-24T17:52:17.157Z,62.99
2022-08-24T17:54:43.780Z,63.96
2022-08-24T17:57:13.154Z,63.80
2022-08-24T17:59:39.886Z,63.64
2022-08-24T18:02:09.947Z,63.45
2022-08-24T18:04:38.228Z,63.93
2022-08-24T18:07:11.694Z,64.24
2022-08-24T18:09:54.818Z,64.07
2022-08-24T18:12:25.081Z,63.64
2022-08-24T18:14:52.767Z,64.39
2022-08-24T18:17:23.036Z,64.66
2022-08-24T18:19:50.897Z,65.03
2022-08-24T18:22:17.566Z,64.41
2022-08-24T18:24:44.723Z,64.22
2022-08-24T18:27:17.651Z,64.80
2022-08-24T18:29:46.390Z,64.73
2022-08-24T18:32:13.451Z,64.80
2022-08-24T18:34:43.065Z,64.32
2022-08-24T18:37:09.688Z,64.49
2022-08-24T18:39:36.648Z,65.19
2022-08-24T18:42:08.799Z,64.30
2022-08-24T18:44:37.008Z,63.93
2022-08-24T18:47:03.851Z,63.44
2022-08-24T18:49:30.445Z,63.22
2022-08-24T18:51:58.093Z,62.71
2022-08-24T18:54:37.844Z,62.15
2022-08-24T18:57:07.021Z,61.82
2022-08-24T18:59:35.407Z,61.34
2022-08-24T19:02:32.001Z,61.20
2022-08-24T19:05:01.256Z,61.29
2022-08-24T19:07:30.274Z,61.41
2022-08-24T19:09:57.103Z,61.33
2022-08-24T19:12:24.173Z,61.93
2022-08-24T19:14:56.799Z,62.53
2022-08-24T19:17:23.694Z,62.70
2022-08-24T19:19:50.337Z,63.07
2022-08-24T19:22:17.401Z,63.70
2022-08-24T19:24:45.026Z,63.88
2022-08-24T19:27:12.016Z,64.16
2022-08-24T19:29:55.266Z,63.68
2022-08-24T19:32:25.732Z,63.81
2022-08-24T19:34:55.880Z,63.88
2022-08-24T19:37:25.526Z,64.24
2022-08-24T19:39:53.062Z,64.39
2022-08-24T19:42:20.977Z,64.72
2022-08-24T19:45:06.831Z,65.37
2022-08-24T19:47:34.486Z,64.99
2022-08-24T19:50:03.821Z,64.77
2022-08-24T19:52:32.565Z,65.04
2022-08-24T19:54:59.409Z,64.99
2022-08-24T19:57:42.603Z,65.21
2022-08-24T20:00:18.010Z,65.26
2022-08-24T20:02:49.685Z,64.96
2022-08-24T20:05:18.689Z,64.78
2022-08-24T20:07:46.435Z,65.23
2022-08-24T20:10:14.920Z,64.96
2022-08-24T20:12:42.100Z,65.27
2022-08-24T20:15:09.205Z,65.31
2022-08-24T20:17:36.669Z,65.23
2022-08-24T20:20:06.344Z,65.70
2022-08-24T20:22:33.217Z,65.59
2022-08-24T20:24:59.964Z,65.88
2022-08-24T20:27:27.893Z,65.69
2022-08-24T20:29:55.364Z,65.64
2022-08-24T20:32:22.848Z,66.05
2022-08-24T20:34:50.000Z,66.46
2022-08-24T20:37:27.069Z,66.55
2022-08-24T20:39:58.000Z,66.41
2022-08-24T20:42:26.987Z,66.78
2022-08-24T20:44:54.799Z,67.14
2022-08-24T20:47:22.416Z,67.02
2022-08-24T20:49:51.462Z,66.94
2022-08-24T20:52:18.377Z,66.60
2022-08-24T20:54:45.162Z,66.20
2022-08-24T20:57:16.784Z,66.24
2022-08-24T20:59:43.617Z,66.81
2022-08-24T21:02:10.320Z,66.72
2022-08-24T21:04:37.627Z,67.17
2022-08-24T21:07:08.330Z,67.66
2022-08-24T21:09:34.940Z,67.78
2022-08-24T21:12:01.535Z,67.60
2022-08-24T21:14:28.344Z,67.55
2022-08-24T21:16:57.236Z,68.04
2022-08-24T21:19:23.934Z,68.30
2022-08-24T21:21:51.136Z,68.79
2022-08-24T21:24:18.132Z,68.56
2022-08-24T21:26:45.086Z,68.82
2022-08-24T21:29:11.711Z,68.79
2022-08-24T21:31:38.901Z,68.65
2022-08-24T21:34:32.016Z,68.75
2022-08-24T21:36:58.641Z,68.62
2022-08-24T21:39:26.627Z,68.94
2022-08-24T21:41:54.689Z,68.45
2022-08-24T21:44:21.948Z,68.61
2022-08-24T21:46:53.282Z,68.80
2022-08-24T21:49:20.730Z,69.04
2022-08-24T21:51:47.441Z,68.81
2022-08-24T21:54:14.206Z,68.71
2022-08-24T21:56:40.951Z,68.93
2022-08-24T21:59:07.597Z,68.84
2022-08-24T22:01:34.513Z,68.82
2022-08-24T22:04:01.589Z,68.91
2022-08-24T22:06:31.606Z,69.00
2022-08-24T22:08:59.746Z,69.32
2022-08-24T22:11:26.461Z,69.20
2022-08-24T22:13:53.939Z,69.45
2022-08-24T22:16:21.900Z,69.54
2022-08-24T22:18:49.297Z,69.69
2022-08-24T22:21:19.564Z,69.59
2022-08-24T22:23:46.356Z,69.75
2022-08-24T22:26:13.056Z,69.94
2022-08-24T22:28:41.522Z,70.07
2022-08-24T22:31:17.214Z,70.20
2022-08-24T22:33:44.162Z,70.27
2022-08-24T22:36:11.481Z,70.28
2022-08-24T22:38:39.259Z,70.41
2022-08-24T22:41:06.726Z,70.81
2022-08-24T22:43:51.660Z,70.58
2022-08-24T22:46:18.694Z,70.87
2022-08-24T22:48:45.494Z,70.81
2022-08-24T22:51:12.887Z,71.01
2022-08-24T22:53:40.528Z,70.55
2022-08-24T22:56:25.675Z,70.82
2022-08-24T22:58:52.735Z,70.80
2022-08-24T23:01:26.490Z,70.87
2022-08-24T23:03:54.302Z,71.04
2022-08-24T23:06:21.995Z,71.22
2022-08-24T23:08:48.919Z,71.33
2022-08-24T23:11:15.975Z,71.62
2022-08-24T23:13:42.750Z,71.72
2022-08-24T23:16:12.294Z,71.53
2022-08-24T23:19:17.664Z,71.93
2022-08-24T23:21:44.768Z,71.93
2022-08-24T23:24:12.254Z,72.44
2022-08-24T23:26:40.147Z,72.51
2022-08-24T23:29:08.998Z,72.48
2022-08-24T23:31:36.883Z,72.60
2022-08-24T23:34:04.005Z,72.62
2022-08-24T23:36:30.753Z,72.44
2022-08-24T23:38:59.452Z,72.49
2022-08-24T23:41:29.946Z,72.30
2022-08-24T23:43:59.412Z,72.48
2022-08-24T23:46:26.890Z,72.50
2022-08-24T23:48:55.555Z,72.52
2022-08-24T23:51:23.922Z,72.62
2022-08-24T23:53:52.012Z,72.66
2022-08-24T23:56:30.814Z,72.57
2022-08-24T23:59:01.369Z,72.57
